createdAt,value
2023-02-27T00:00:55.569Z,0.00
2023-02-27T00:01:55.798Z,0.00
2023-02-27T00:02:55.622Z,0.00
2023-02-27T00:03:59.512Z,0.00
2023-02-27T00:04:55.558Z,0.00
2023-02-27T00:05:56.491Z,0.00
2023-02-27T00:06:55.529Z,0.00
2023-02-27T00:07:55.478Z,0.00
2023-02-27T00:08:55.785Z,0.00
2023-02-27T00:09:55.449Z,0.00
2023-02-27T00:10:55.523Z,0.00
2023-02-27T00:11:55.426Z,0.00
2023-02-27T00:12:55.408Z,0.00
2023-02-27T00:13:55.440Z,0.00
2023-02-27T00:14:55.410Z,0.00
2023-02-27T00:15:55.404Z,0.00
2023-02-27T00:16:55.417Z,0.00
2023-02-27T00:17:55.355Z,0.00
2023-02-27T00:18:59.351Z,0.00
2023-02-27T00:19:55.340Z,0.00
2023-02-27T00:20:55.322Z,0.00
2023-02-27T00:21:55.606Z,0.00
2023-02-27T00:22:55.374Z,0.00
2023-02-27T00:23:55.287Z,0.00
2023-02-27T00:24:55.303Z,0.00
2023-02-27T00:25:55.242Z,0.00
2023-02-27T00:26:55.249Z,0.00
2023-02-27T00:27:55.247Z,0.00
2023-02-27T00:28:55.271Z,0.00
2023-02-27T00:29:55.210Z,0.00
2023-02-27T00:30:55.237Z,0.00
2023-02-27T00:31:55.233Z,0.00
2023-02-27T00:32:55.274Z,0.00
2023-02-27T00:33:55.421Z,0.00
2023-02-27T00:34:55.601Z,0.00
2023-02-27T00:35:55.153Z,0.00
2023-02-27T00:36:55.123Z,0.00
2023-02-27T00:37:55.106Z,0.00
2023-02-27T00:38:55.122Z,0.00
2023-02-27T00:39:55.391Z,0.00
2023-02-27T00:40:55.097Z,0.00
2023-02-27T00:41:55.071Z,0.00
2023-02-27T00:42:55.069Z,0.00
2023-02-27T00:43:55.044Z,0.00
2023-02-27T00:44:55.045Z,0.00
2023-02-27T00:45:55.054Z,0.00
2023-02-27T00:46:55.075Z,0.00
2023-02-27T00:47:55.036Z,0.00
2023-02-27T00:48:54.985Z,0.00
2023-02-27T00:49:54.965Z,0.00
2023-02-27T00:50:54.948Z,0.00
2023-02-27T00:51:54.980Z,0.00
2023-02-27T00:52:54.952Z,0.00
2023-02-27T00:53:54.917Z,0.00
2023-02-27T00:54:54.923Z,0.00
2023-02-27T00:55:54.893Z,0.00
2023-02-27T00:56:54.897Z,0.00
2023-02-27T00:57:54.925Z,0.00
2023-02-27T00:58:54.883Z,0.00
2023-02-27T00:59:54.845Z,0.00
2023-02-27T01:00:54.860Z,0.00
2023-02-27T01:01:54.814Z,0.00
2023-02-27T01:02:54.861Z,0.00
2023-02-27T01:03:54.816Z,0.00
2023-02-27T01:04:54.806Z,0.00
2023-02-27T01:05:55.469Z,0.00
2023-02-27T01:06:55.026Z,0.00
2023-02-27T01:07:54.748Z,0.00
2023-02-27T01:08:54.804Z,0.00
2023-02-27T01:09:54.765Z,0.00
2023-02-27T01:10:54.740Z,0.00
2023-02-27T01:11:54.711Z,0.00
2023-02-27T01:12:54.993Z,0.00
2023-02-27T01:13:55.005Z,0.00
2023-02-27T01:14:54.673Z,0.00
2023-02-27T01:15:54.855Z,0.00
2023-02-27T01:16:56.394Z,0.00
2023-02-27T01:17:54.694Z,0.00
2023-02-27T01:18:55.393Z,0.00
2023-02-27T01:19:54.901Z,0.00
2023-02-27T01:20:58.565Z,0.00
2023-02-27T01:21:54.614Z,0.00
2023-02-27T01:22:59.097Z,0.00
2023-02-27T01:23:54.581Z,0.00
2023-02-27T01:24:54.584Z,0.00
2023-02-27T01:25:54.605Z,0.00
2023-02-27T01:26:54.549Z,0.00
2023-02-27T01:29:06.578Z,0.00
2023-02-27T01:30:27.636Z,0.00
2023-02-27T01:31:05.877Z,0.00
2023-02-27T01:32:05.427Z,0.00
2023-02-27T01:33:06.919Z,0.00
2023-02-27T01:34:06.278Z,0.00
2023-02-27T01:35:06.355Z,0.00
2023-02-27T01:36:06.400Z,0.00
2023-02-27T01:37:06.970Z,0.00
2023-02-27T01:38:05.037Z,0.00
2023-02-27T01:39:10.091Z,0.00
2023-02-27T01:40:08.586Z,0.00
2023-02-27T01:41:04.762Z,0.00
2023-02-27T01:42:06.666Z,0.00
2023-02-27T01:43:06.323Z,0.00
2023-02-27T01:44:08.090Z,0.00
2023-02-27T01:45:05.625Z,0.00
2023-02-27T01:46:09.105Z,0.00
2023-02-27T01:47:10.458Z,0.00
2023-02-27T01:48:06.673Z,0.00
2023-02-27T01:49:11.415Z,0.00
2023-02-27T01:50:06.851Z,0.00
2023-02-27T01:51:07.125Z,0.00
2023-02-27T01:52:05.062Z,0.00
2023-02-27T01:53:06.204Z,0.00
2023-02-27T01:54:05.894Z,0.00
2023-02-27T01:55:32.435Z,0.00
2023-02-27T01:56:05.022Z,0.00
2023-02-27T01:57:07.302Z,0.00
2023-02-27T01:58:08.233Z,0.00
2023-02-27T01:59:06.840Z,0.00
2023-02-27T02:00:04.883Z,0.00
2023-02-27T02:01:06.197Z,0.00
2023-02-27T02:02:05.595Z,0.00
2023-02-27T02:03:05.458Z,0.00
2023-02-27T02:04:06.697Z,0.00
2023-02-27T02:05:05.474Z,0.00
2023-02-27T02:06:05.584Z,0.00
2023-02-27T02:07:05.242Z,0.00
2023-02-27T02:08:04.850Z,0.00
2023-02-27T02:09:05.472Z,0.00
2023-02-27T02:10:06.348Z,0.00
2023-02-27T02:11:11.049Z,0.00
2023-02-27T02:12:09.704Z,0.00
2023-02-27T02:13:07.935Z,0.00
2023-02-27T02:14:07.174Z,0.00
2023-02-27T02:15:05.235Z,0.00
2023-02-27T02:16:08.725Z,0.00
2023-02-27T02:17:08.492Z,0.00
2023-02-27T02:18:09.929Z,0.00
2023-02-27T02:19:08.174Z,0.00
2023-02-27T02:20:04.820Z,0.00
2023-02-27T02:21:06.722Z,0.00
2023-02-27T02:22:05.602Z,0.00
2023-02-27T02:23:06.823Z,0.00
2023-02-27T02:24:11.127Z,0.00
2023-02-27T02:25:04.690Z,0.00
2023-02-27T02:26:06.054Z,0.00
2023-02-27T02:27:06.216Z,0.00
2023-02-27T02:28:06.484Z,0.00
2023-02-27T02:29:06.755Z,0.00
2023-02-27T02:30:04.958Z,0.00
2023-02-27T02:31:06.517Z,0.00
2023-02-27T02:32:04.251Z,0.00
2023-02-27T02:33:05.399Z,0.00
2023-02-27T02:34:05.579Z,0.00
2023-02-27T02:35:06.913Z,0.00
2023-02-27T02:36:28.501Z,0.00
2023-02-27T02:37:04.266Z,0.00
2023-02-27T02:38:05.711Z,0.00
2023-02-27T02:39:27.985Z,0.00
2023-02-27T02:40:05.528Z,0.00
2023-02-27T02:41:06.730Z,0.00
2023-02-27T02:42:05.196Z,0.00
2023-02-27T02:43:05.225Z,0.00
2023-02-27T02:44:06.026Z,0.00
2023-02-27T02:45:08.326Z,0.00
2023-02-27T02:46:06.172Z,0.00
2023-02-27T02:47:26.320Z,0.00
2023-02-27T02:48:05.783Z,0.00
2023-02-27T02:49:08.418Z,0.00
2023-02-27T02:50:04.605Z,0.00
2023-02-27T02:51:05.552Z,0.00
2023-02-27T02:52:08.782Z,0.00
2023-02-27T02:53:06.122Z,0.00
2023-02-27T02:54:04.766Z,0.00
2023-02-27T02:55:05.551Z,0.00
2023-02-27T02:57:15.561Z,0.00
2023-02-27T02:58:15.504Z,0.00
2023-02-27T02:59:16.049Z,0.00
2023-02-27T03:00:17.234Z,0.00
2023-02-27T03:01:17.406Z,0.00
2023-02-27T03:02:15.911Z,0.00
2023-02-27T03:03:17.011Z,0.00
2023-02-27T03:04:19.117Z,0.00
2023-02-27T03:05:19.342Z,0.00
2023-02-27T03:06:16.207Z,0.00
2023-02-27T03:07:17.097Z,0.00
2023-02-27T03:08:15.861Z,0.00
2023-02-27T03:09:17.423Z,0.00
2023-02-27T03:10:17.050Z,0.00
2023-02-27T03:11:17.766Z,0.00
2023-02-27T03:12:18.294Z,0.00
2023-02-27T03:13:20.597Z,0.00
2023-02-27T03:14:31.105Z,0.00
2023-02-27T03:15:16.363Z,0.00
2023-02-27T03:16:16.578Z,0.00
2023-02-27T03:17:18.981Z,0.00
2023-02-27T03:18:20.578Z,0.00
2023-02-27T03:19:16.501Z,0.00
2023-02-27T03:20:22.844Z,0.00
2023-02-27T03:21:15.277Z,0.00
2023-02-27T03:22:16.373Z,0.00
2023-02-27T03:23:23.212Z,0.00
2023-02-27T03:24:20.148Z,0.00
2023-02-27T03:25:16.802Z,0.00
2023-02-27T03:26:16.670Z,0.00
2023-02-27T03:27:16.790Z,0.00
2023-02-27T03:28:18.637Z,0.00
2023-02-27T03:29:15.939Z,0.00
2023-02-27T03:30:30.867Z,0.00
2023-02-27T03:31:17.893Z,0.00
2023-02-27T03:32:16.184Z,0.00
2023-02-27T03:33:16.061Z,0.00
2023-02-27T03:34:18.015Z,0.00
2023-02-27T03:35:18.708Z,0.00
2023-02-27T03:36:17.791Z,0.00
2023-02-27T03:37:15.920Z,0.00
2023-02-27T03:38:21.104Z,0.00
2023-02-27T03:39:17.174Z,0.00
2023-02-27T03:40:15.196Z,0.00
2023-02-27T03:41:15.503Z,0.00
2023-02-27T03:42:17.043Z,0.00
2023-02-27T03:43:16.003Z,0.00
2023-02-27T03:44:24.190Z,0.00
2023-02-27T03:45:38.157Z,0.00
2023-02-27T03:46:15.821Z,0.00
2023-02-27T03:47:17.141Z,0.00
2023-02-27T03:48:17.013Z,0.00
2023-02-27T03:49:16.690Z,0.00
2023-02-27T03:50:15.588Z,0.00
2023-02-27T03:51:17.817Z,0.00
2023-02-27T03:52:17.683Z,0.00
2023-02-27T03:53:15.108Z,0.00
2023-02-27T03:54:16.388Z,0.00
2023-02-27T03:55:16.066Z,0.00
2023-02-27T03:56:16.687Z,0.00
2023-02-27T03:57:16.652Z,0.00
2023-02-27T03:58:15.062Z,0.00
2023-02-27T03:59:14.789Z,0.00
2023-02-27T04:00:14.874Z,0.00
2023-02-27T04:01:18.712Z,0.00
2023-02-27T04:02:16.965Z,0.00
2023-02-27T04:03:39.783Z,0.00
2023-02-27T04:04:16.435Z,0.00
2023-02-27T04:05:16.676Z,0.00
2023-02-27T04:06:17.504Z,0.00
2023-02-27T04:07:15.251Z,0.00
2023-02-27T04:08:16.507Z,0.00
2023-02-27T04:09:15.986Z,0.00
2023-02-27T04:10:15.075Z,0.00
2023-02-27T04:11:16.100Z,0.00
2023-02-27T04:12:15.400Z,0.00
2023-02-27T04:13:16.769Z,0.00
2023-02-27T04:14:18.927Z,0.00
2023-02-27T04:15:16.432Z,0.00
2023-02-27T04:16:17.450Z,0.00
2023-02-27T04:17:16.635Z,0.00
2023-02-27T04:18:16.973Z,0.00
2023-02-27T04:19:14.994Z,0.00
2023-02-27T04:20:19.573Z,0.00
2023-02-27T04:21:20.327Z,0.00
2023-02-27T04:22:17.295Z,0.00
2023-02-27T04:23:37.865Z,0.00
2023-02-27T04:24:15.774Z,0.00
2023-02-27T04:25:16.602Z,0.00
2023-02-27T04:26:16.129Z,0.00
2023-02-27T04:27:15.178Z,0.00
2023-02-27T04:28:15.594Z,0.00
2023-02-27T04:29:37.003Z,0.00
2023-02-27T04:30:18.283Z,0.00
2023-02-27T04:31:16.008Z,0.00
2023-02-27T04:32:15.633Z,0.00
2023-02-27T04:33:18.392Z,0.00
2023-02-27T04:34:14.801Z,0.00
2023-02-27T04:35:15.851Z,0.00
2023-02-27T04:36:18.825Z,0.00
2023-02-27T04:37:18.392Z,0.00
2023-02-27T04:38:39.043Z,0.00
2023-02-27T04:39:15.122Z,0.00
2023-02-27T04:40:15.573Z,0.00
2023-02-27T04:41:15.703Z,0.00
2023-02-27T04:42:17.950Z,0.00
2023-02-27T04:43:17.403Z,0.00
2023-02-27T04:44:17.237Z,0.00
2023-02-27T04:45:18.998Z,0.00
2023-02-27T04:46:16.097Z,0.00
2023-02-27T04:47:39.002Z,0.00
2023-02-27T04:48:18.081Z,0.00
2023-02-27T04:49:14.954Z,0.00
2023-02-27T04:50:15.275Z,0.00
2023-02-27T04:51:15.642Z,0.00
2023-02-27T04:52:16.362Z,0.00
2023-02-27T04:53:16.168Z,0.00
2023-02-27T04:54:29.769Z,0.00
2023-02-27T04:55:16.360Z,0.00
2023-02-27T04:56:21.932Z,0.00
2023-02-27T04:57:22.340Z,0.00
2023-02-27T04:58:37.434Z,0.00
2023-02-27T04:59:15.133Z,0.00
2023-02-27T05:00:20.929Z,0.00
2023-02-27T05:01:15.076Z,0.00
2023-02-27T05:02:14.470Z,0.00
2023-02-27T05:03:15.111Z,0.00
2023-02-27T05:04:19.689Z,0.00
2023-02-27T05:05:19.628Z,0.00
2023-02-27T05:06:15.785Z,0.00
2023-02-27T05:07:15.744Z,0.00
2023-02-27T05:08:17.730Z,0.00
2023-02-27T05:09:22.937Z,0.00
2023-02-27T05:10:15.915Z,0.00
2023-02-27T05:11:22.211Z,0.00
2023-02-27T05:12:19.165Z,0.00
2023-02-27T05:13:14.556Z,0.00
2023-02-27T05:14:14.851Z,0.00
2023-02-27T05:15:15.057Z,0.00
2023-02-27T05:17:25.997Z,0.00
2023-02-27T05:18:25.956Z,0.00
2023-02-27T05:19:25.935Z,0.00
2023-02-27T05:20:28.349Z,0.00
2023-02-27T05:21:27.197Z,0.00
2023-02-27T05:22:26.821Z,0.00
2023-02-27T05:23:25.866Z,0.00
2023-02-27T05:24:29.715Z,0.00
2023-02-27T05:25:25.888Z,0.00
2023-02-27T05:26:25.824Z,0.00
2023-02-27T05:27:25.841Z,0.00
2023-02-27T05:28:26.058Z,0.00
2023-02-27T05:29:26.076Z,0.00
2023-02-27T05:30:25.770Z,0.00
2023-02-27T05:31:26.128Z,0.00
2023-02-27T05:32:31.439Z,0.00
2023-02-27T05:33:26.226Z,0.00
2023-02-27T05:34:27.365Z,0.00
2023-02-27T05:35:29.110Z,0.00
2023-02-27T05:36:28.965Z,0.00
2023-02-27T05:37:26.685Z,0.00
2023-02-27T05:38:27.885Z,0.00
2023-02-27T05:39:28.857Z,0.00
2023-02-27T05:40:27.146Z,0.00
2023-02-27T05:41:41.338Z,1.00
2023-02-27T05:42:26.662Z,1.00
2023-02-27T05:43:27.198Z,1.00
2023-02-27T05:44:28.006Z,0.00
2023-02-27T05:45:29.371Z,0.00
2023-02-27T05:46:27.621Z,0.00
2023-02-27T05:47:28.079Z,2.00
2023-02-27T05:48:25.823Z,2.00
2023-02-27T05:49:30.685Z,2.00
2023-02-27T05:50:26.488Z,0.00
2023-02-27T05:51:27.035Z,4.00
2023-02-27T05:52:25.856Z,2.00
2023-02-27T05:53:26.620Z,6.00
2023-02-27T05:54:47.936Z,5.00
2023-02-27T05:55:26.046Z,3.00
2023-02-27T05:56:27.099Z,9.00
2023-02-27T05:57:47.843Z,11.00
2023-02-27T05:58:26.274Z,4.00
2023-02-27T05:59:31.124Z,14.00
2023-02-27T06:00:28.334Z,8.00
2023-02-27T06:01:46.789Z,19.00
2023-02-27T06:02:27.035Z,30.00
2023-02-27T06:03:28.412Z,23.00
2023-02-27T06:04:26.929Z,34.00
2023-02-27T06:05:26.292Z,35.00
2023-02-27T06:06:26.427Z,48.00
2023-02-27T06:07:26.573Z,54.00
2023-02-27T06:08:29.167Z,63.00
2023-02-27T06:09:25.912Z,71.00
2023-02-27T06:10:28.969Z,90.00
2023-02-27T06:11:27.655Z,97.00
2023-02-27T06:12:26.928Z,116.00
2023-02-27T06:13:30.740Z,132.00
2023-02-27T06:14:27.126Z,158.00
2023-02-27T06:15:26.876Z,183.00
2023-02-27T06:16:25.981Z,206.00
2023-02-27T06:17:26.524Z,232.00
2023-02-27T06:18:26.165Z,255.00
2023-02-27T06:19:25.368Z,294.00
2023-02-27T06:20:26.110Z,324.00
2023-02-27T06:21:25.532Z,358.00
2023-02-27T06:22:27.089Z,408.00
2023-02-27T06:23:28.910Z,444.00
2023-02-27T06:24:26.483Z,488.00
2023-02-27T06:25:25.878Z,531.00
2023-02-27T06:26:26.954Z,587.00
2023-02-27T06:27:25.907Z,637.00
2023-02-27T06:28:28.909Z,693.00
2023-02-27T06:29:25.822Z,751.00
2023-02-27T06:30:26.239Z,806.00
2023-02-27T06:31:26.421Z,860.00
2023-02-27T06:32:26.374Z,930.00
2023-02-27T06:33:26.875Z,989.00
2023-02-27T06:34:27.727Z,1050.00
2023-02-27T06:35:27.724Z,1115.00
2023-02-27T06:36:31.144Z,1183.00
2023-02-27T06:37:25.541Z,1257.00
2023-02-27T06:38:29.115Z,1340.00
2023-02-27T06:39:26.379Z,1409.00
2023-02-27T06:40:26.774Z,1475.00
2023-02-27T06:41:28.277Z,1553.00
2023-02-27T06:42:31.352Z,1617.00
2023-02-27T06:43:26.308Z,1697.00
2023-02-27T06:44:28.574Z,1773.00
2023-02-27T06:45:26.123Z,1854.00
2023-02-27T06:46:27.192Z,1938.00
2023-02-27T06:47:30.882Z,2004.00
2023-02-27T06:48:30.142Z,2097.00
2023-02-27T06:49:26.808Z,2173.00
2023-02-27T06:50:40.729Z,2255.00
2023-02-27T06:51:26.638Z,2349.00
2023-02-27T06:52:31.242Z,2429.00
2023-02-27T06:53:53.139Z,2518.00
2023-02-27T06:54:30.211Z,2607.00
2023-02-27T06:55:31.853Z,2696.00
2023-02-27T06:56:28.925Z,2787.00
2023-02-27T06:58:36.690Z,0.00
2023-02-27T06:59:38.537Z,3031.00
2023-02-27T07:00:43.583Z,3144.00
2023-02-27T07:01:40.723Z,3206.00
2023-02-27T07:02:37.843Z,3290.00
2023-02-27T07:04:01.317Z,3371.00
2023-02-27T07:04:38.677Z,3441.00
2023-02-27T07:07:32.393Z,0.00
2023-02-27T07:09:06.648Z,0.00
2023-02-27T07:10:06.778Z,3895.00
2023-02-27T07:11:05.907Z,3985.00
2023-02-27T07:12:23.325Z,4056.00
2023-02-27T07:13:04.423Z,4127.00
2023-02-27T07:14:12.184Z,4221.00
2023-02-27T07:15:07.209Z,4293.00
2023-02-27T07:16:04.269Z,4373.00
2023-02-27T07:17:04.817Z,4449.00
2023-02-27T07:18:05.290Z,4523.00
2023-02-27T07:19:07.450Z,4604.00
2023-02-27T07:20:02.916Z,4668.00
2023-02-27T07:21:03.979Z,4741.00
2023-02-27T07:22:03.806Z,4813.00
2023-02-27T07:23:18.242Z,4868.00
2023-02-27T07:24:08.444Z,4962.00
2023-02-27T07:25:03.460Z,5012.00
2023-02-27T07:26:05.707Z,5088.00
2023-02-27T07:27:05.521Z,5160.00
2023-02-27T07:28:07.672Z,5221.00
2023-02-27T07:29:06.394Z,5288.00
2023-02-27T07:30:17.116Z,5360.00
2023-02-27T07:31:11.596Z,5432.00
2023-02-27T07:32:02.838Z,5474.00
2023-02-27T07:33:04.991Z,5548.00
2023-02-27T07:34:04.558Z,5609.00
2023-02-27T07:35:02.608Z,5672.00
2023-02-27T07:36:03.122Z,5742.00
2023-02-27T07:37:27.641Z,5810.00
2023-02-27T07:38:04.239Z,5844.00
2023-02-27T07:39:03.724Z,5907.00
2023-02-27T07:40:02.684Z,5972.00
2023-02-27T07:41:02.142Z,6052.00
2023-02-27T07:42:03.650Z,6116.00
2023-02-27T07:43:02.143Z,6177.00
2023-02-27T07:44:02.949Z,6238.00
2023-02-27T07:45:01.993Z,6290.00
2023-02-27T07:46:02.947Z,6351.00
2023-02-27T07:47:01.977Z,6415.00
2023-02-27T07:48:01.991Z,6479.00
2023-02-27T07:49:01.935Z,6529.00
2023-02-27T07:50:01.935Z,6589.00
2023-02-27T07:51:01.896Z,6639.00
2023-02-27T07:52:01.896Z,6688.00
2023-02-27T07:53:01.893Z,6738.00
2023-02-27T07:54:12.572Z,6794.00
2023-02-27T07:55:01.869Z,6828.00
2023-02-27T07:56:01.873Z,6874.00
2023-02-27T07:57:01.830Z,6920.00
2023-02-27T07:58:01.896Z,6943.00
2023-02-27T07:59:01.829Z,6964.00
2023-02-27T08:01:31.536Z,0.00
2023-02-27T08:02:15.080Z,6150.00
2023-02-27T08:03:16.627Z,5895.00
2023-02-27T08:04:16.880Z,5941.00
2023-02-27T08:05:18.033Z,5844.00
2023-02-27T08:06:14.093Z,5763.00
2023-02-27T08:07:36.353Z,5676.00
2023-02-27T08:08:15.118Z,5572.00
2023-02-27T08:13:59.532Z,0.00
2023-02-27T08:15:54.220Z,0.00
2023-02-27T08:16:54.431Z,5002.00
2023-02-27T08:17:54.161Z,4998.00
2023-02-27T08:18:54.187Z,5009.00
2023-02-27T08:19:54.146Z,5055.00
2023-02-27T08:20:54.124Z,5057.00
2023-02-27T08:21:54.134Z,5079.00
2023-02-27T08:22:54.101Z,5108.00
2023-02-27T08:23:54.093Z,5195.00
2023-02-27T08:24:54.104Z,5285.00
2023-02-27T08:25:54.114Z,5314.00
2023-02-27T08:26:54.047Z,5300.00
2023-02-27T08:27:54.064Z,5281.00
2023-02-27T08:28:54.089Z,5355.00
2023-02-27T08:29:54.015Z,5446.00
2023-02-27T08:30:54.092Z,5497.00
2023-02-27T08:31:55.119Z,5556.00
2023-02-27T08:32:53.963Z,5651.00
2023-02-27T08:34:01.058Z,5731.00
2023-02-27T08:34:54.944Z,5783.00
2023-02-27T08:35:54.011Z,5793.00
2023-02-27T08:36:53.952Z,5843.00
2023-02-27T08:37:53.908Z,5900.00
2023-02-27T08:38:53.903Z,5929.00
2023-02-27T08:39:53.892Z,5970.00
2023-02-27T08:40:53.877Z,6032.00
2023-02-27T08:41:53.882Z,6120.00
2023-02-27T08:42:53.869Z,6221.00
2023-02-27T08:43:53.849Z,6292.00
2023-02-27T08:44:53.826Z,6332.00
2023-02-27T08:45:53.883Z,6334.00
2023-02-27T08:46:53.794Z,6356.00
2023-02-27T08:47:53.782Z,6387.00
2023-02-27T08:48:53.805Z,6385.00
2023-02-27T08:49:53.765Z,6373.00
2023-02-27T08:50:53.744Z,6383.00
2023-02-27T08:51:53.737Z,6420.00
2023-02-27T08:52:53.867Z,6480.00
2023-02-27T08:53:53.715Z,6531.00
2023-02-27T08:54:53.718Z,6605.00
2023-02-27T08:55:53.706Z,6698.00
2023-02-27T08:56:53.678Z,6799.00
2023-02-27T08:57:53.668Z,7332.00
2023-02-27T08:58:53.652Z,7128.00
2023-02-27T08:59:53.719Z,6923.00
2023-02-27T09:00:53.645Z,6997.00
2023-02-27T09:01:53.605Z,7449.00
2023-02-27T09:02:54.030Z,8691.00
2023-02-27T09:03:53.590Z,8630.00
2023-02-27T09:04:53.577Z,8480.00
2023-02-27T09:05:54.236Z,8289.00
2023-02-27T09:06:53.559Z,8169.00
2023-02-27T09:07:53.532Z,8122.00
2023-02-27T09:08:53.529Z,8139.00
2023-02-27T09:09:53.498Z,8197.00
2023-02-27T09:10:53.491Z,8225.00
2023-02-27T09:11:53.485Z,8339.00
2023-02-27T09:12:53.548Z,8416.00
2023-02-27T09:13:53.449Z,8385.00
2023-02-27T09:14:53.438Z,7992.00
2023-02-27T09:15:53.440Z,8074.00
2023-02-27T09:16:53.493Z,8285.00
2023-02-27T09:17:53.401Z,8448.00
2023-02-27T09:18:53.440Z,8487.00
2023-02-27T09:19:53.644Z,8489.00
2023-02-27T09:20:53.380Z,8500.00
2023-02-27T09:21:53.386Z,8498.00
2023-02-27T09:22:53.362Z,8514.00
2023-02-27T09:23:53.332Z,8514.00
2023-02-27T09:24:53.348Z,8509.00
2023-02-27T09:25:53.343Z,8499.00
2023-02-27T09:26:53.442Z,8485.00
2023-02-27T09:27:53.307Z,8463.00
2023-02-27T09:28:53.282Z,8455.00
2023-02-27T09:29:53.415Z,8440.00
2023-02-27T09:30:53.265Z,8446.00
2023-02-27T09:31:53.315Z,8438.00
2023-02-27T09:32:53.314Z,8418.00
2023-02-27T09:33:53.208Z,8413.00
2023-02-27T09:34:53.202Z,8400.00
2023-02-27T09:35:53.249Z,8397.00
2023-02-27T09:36:53.283Z,8398.00
2023-02-27T09:37:53.164Z,8386.00
2023-02-27T09:38:53.145Z,8382.00
2023-02-27T09:39:53.153Z,8380.00
2023-02-27T09:40:53.117Z,8371.00
2023-02-27T09:41:53.108Z,8377.00
2023-02-27T09:42:54.217Z,8368.00
2023-02-27T09:43:53.097Z,8346.00
2023-02-27T09:44:53.074Z,8321.00
2023-02-27T09:45:53.088Z,8327.00
2023-02-27T09:46:53.047Z,8330.00
2023-02-27T09:47:53.040Z,8315.00
2023-02-27T09:48:53.126Z,8312.00
2023-02-27T09:49:53.023Z,8307.00
2023-02-27T09:50:53.006Z,8302.00
2023-02-27T09:51:53.512Z,8287.00
2023-02-27T09:52:52.978Z,8282.00
2023-02-27T09:53:53.209Z,8293.00
2023-02-27T09:54:52.983Z,8281.00
2023-02-27T09:55:52.930Z,8270.00
2023-02-27T09:56:52.911Z,8269.00
2023-02-27T09:57:52.901Z,8256.00
2023-02-27T09:58:52.902Z,8263.00
2023-02-27T09:59:52.984Z,8242.00
2023-02-27T10:00:52.893Z,8240.00
2023-02-27T10:01:52.878Z,8230.00
2023-02-27T10:02:52.877Z,8213.00
2023-02-27T10:03:52.843Z,8201.00
2023-02-27T10:04:52.830Z,8205.00
2023-02-27T10:05:52.816Z,8196.00
2023-02-27T10:06:52.831Z,8201.00
2023-02-27T10:07:52.808Z,8196.00
2023-02-27T10:08:52.770Z,8180.00
2023-02-27T10:09:52.767Z,8173.00
2023-02-27T10:10:52.752Z,8178.00
2023-02-27T10:11:52.736Z,8170.00
2023-02-27T10:12:52.769Z,8166.00
2023-02-27T10:13:52.724Z,8169.00
2023-02-27T10:14:52.699Z,8166.00
2023-02-27T10:15:52.700Z,8138.00
2023-02-27T10:16:52.717Z,8124.00
2023-02-27T10:17:52.663Z,8157.00
2023-02-27T10:18:52.673Z,8179.00
2023-02-27T10:19:52.653Z,8171.00
2023-02-27T10:20:52.622Z,8143.00
2023-02-27T10:21:52.616Z,8166.00
2023-02-27T10:22:52.608Z,8223.00
2023-02-27T10:23:52.590Z,8221.00
2023-02-27T10:24:52.671Z,8190.00
2023-02-27T10:25:52.572Z,8185.00
2023-02-27T10:26:52.552Z,8230.00
2023-02-27T10:27:52.521Z,8233.00
2023-02-27T10:28:52.516Z,8275.00
2023-02-27T10:29:53.468Z,8292.00
2023-02-27T10:30:52.696Z,8293.00
2023-02-27T10:31:52.513Z,8300.00
2023-02-27T10:32:52.473Z,8301.00
2023-02-27T10:33:52.464Z,8330.00
2023-02-27T10:34:52.609Z,8339.00
2023-02-27T10:35:52.513Z,8355.00
2023-02-27T10:36:52.439Z,8350.00
2023-02-27T10:37:52.408Z,8380.00
2023-02-27T10:38:52.426Z,8391.00
2023-02-27T10:39:52.406Z,8420.00
2023-02-27T10:40:52.391Z,8482.00
2023-02-27T10:41:52.379Z,8480.00
2023-02-27T10:42:52.369Z,8481.00
2023-02-27T10:43:53.006Z,8494.00
2023-02-27T10:44:52.337Z,8531.00
2023-02-27T10:45:52.335Z,8533.00
2023-02-27T10:46:52.383Z,8582.00
2023-02-27T10:47:52.286Z,8582.00
2023-02-27T10:48:52.295Z,8648.00
2023-02-27T10:49:52.296Z,8665.00
2023-02-27T10:50:52.410Z,8650.00
2023-02-27T10:51:52.235Z,8734.00
2023-02-27T10:52:52.214Z,8777.00
2023-02-27T10:53:52.214Z,8774.00
2023-02-27T10:54:52.484Z,8818.00
2023-02-27T10:55:52.175Z,8906.00
2023-02-27T10:56:52.203Z,9104.00
2023-02-27T10:57:52.152Z,9271.00
2023-02-27T10:58:53.110Z,9518.00
2023-02-27T10:59:52.128Z,9670.00
2023-02-27T11:00:52.216Z,7883.00
2023-02-27T11:01:52.138Z,8469.00
2023-02-27T11:02:52.090Z,6998.00
2023-02-27T11:03:52.091Z,8295.00
2023-02-27T11:04:52.109Z,9582.00
2023-02-27T11:05:52.056Z,9787.00
2023-02-27T11:06:52.147Z,10088.00
2023-02-27T11:07:52.026Z,7949.00
2023-02-27T11:08:52.009Z,10302.00
2023-02-27T11:09:52.000Z,10157.00
2023-02-27T11:10:51.998Z,10038.00
2023-02-27T11:11:51.985Z,10104.00
2023-02-27T11:12:51.988Z,10323.00
2023-02-27T11:13:51.959Z,10606.00
2023-02-27T11:14:51.944Z,10587.00
2023-02-27T11:15:52.205Z,10851.00
2023-02-27T11:16:52.199Z,10981.00
2023-02-27T11:17:51.897Z,11243.00
2023-02-27T11:18:52.010Z,11442.00
2023-02-27T11:19:51.881Z,11532.00
2023-02-27T11:20:51.863Z,11797.00
2023-02-27T11:21:51.852Z,12141.00
2023-02-27T11:22:51.844Z,12266.00
2023-02-27T11:23:51.859Z,12196.00
2023-02-27T11:24:51.876Z,12120.00
2023-02-27T11:25:51.818Z,12051.00
2023-02-27T11:26:51.795Z,10618.00
2023-02-27T11:27:51.942Z,9717.00
2023-02-27T11:28:51.768Z,9606.00
2023-02-27T11:29:51.761Z,9765.00
2023-02-27T11:30:51.808Z,12246.00
2023-02-27T11:31:51.755Z,12106.00
2023-02-27T11:32:51.721Z,11842.00
2023-02-27T11:33:51.860Z,11223.00
2023-02-27T11:34:51.707Z,9520.00
2023-02-27T11:35:51.722Z,9559.00
2023-02-27T11:36:52.946Z,9534.00
2023-02-27T11:37:51.927Z,9772.00
2023-02-27T11:38:51.644Z,10851.00
2023-02-27T11:39:51.644Z,10082.00
2023-02-27T11:40:51.634Z,11144.00
2023-02-27T11:41:51.620Z,12199.00
2023-02-27T11:42:51.621Z,12081.00
2023-02-27T11:43:51.571Z,11925.00
2023-02-27T11:44:51.820Z,11865.00
2023-02-27T11:46:24.976Z,11853.00
2023-02-27T11:46:52.592Z,11918.00
2023-02-27T11:47:51.524Z,11968.00
2023-02-27T11:48:51.829Z,12065.00
2023-02-27T11:49:51.509Z,12075.00
2023-02-27T11:50:52.445Z,12133.00
2023-02-27T11:51:51.482Z,12227.00
2023-02-27T11:52:51.454Z,12255.00
2023-02-27T11:53:51.465Z,12162.00
2023-02-27T11:54:51.459Z,12034.00
2023-02-27T11:55:51.415Z,12162.00
2023-02-27T11:56:51.427Z,12278.00
2023-02-27T11:57:51.397Z,12422.00
2023-02-27T11:58:51.388Z,12591.00
2023-02-27T11:59:51.367Z,12738.00
2023-02-27T12:00:51.389Z,12733.00
2023-02-27T12:01:51.343Z,12568.00
2023-02-27T12:02:51.352Z,12430.00
2023-02-27T12:03:51.409Z,12157.00
2023-02-27T12:04:51.319Z,11925.00
2023-02-27T12:05:51.296Z,11809.00
2023-02-27T12:06:51.302Z,11609.00
2023-02-27T12:07:52.766Z,11189.00
2023-02-27T12:08:51.256Z,11641.00
2023-02-27T12:09:51.232Z,11645.00
2023-02-27T12:10:52.042Z,11727.00
2023-02-27T12:11:52.183Z,11614.00
2023-02-27T12:12:51.240Z,10647.00
2023-02-27T12:13:52.138Z,9910.00
2023-02-27T12:14:51.207Z,8647.00
2023-02-27T12:15:51.224Z,10934.00
2023-02-27T12:16:51.226Z,11059.00
2023-02-27T12:17:51.143Z,8965.00
2023-02-27T12:18:51.269Z,8468.00
2023-02-27T12:19:51.112Z,10430.00
2023-02-27T12:20:51.106Z,8048.00
2023-02-27T12:21:51.084Z,9884.00
2023-02-27T12:22:51.086Z,10299.00
2023-02-27T12:23:51.063Z,11893.00
2023-02-27T12:24:51.086Z,10822.00
2023-02-27T12:25:51.036Z,9583.00
2023-02-27T12:26:51.296Z,9600.00
2023-02-27T12:27:51.018Z,10921.00
2023-02-27T12:28:51.009Z,12947.00
2023-02-27T12:29:50.998Z,12995.00
2023-02-27T12:30:51.220Z,12904.00
2023-02-27T12:31:51.065Z,12803.00
2023-02-27T12:32:50.954Z,12585.00
2023-02-27T12:33:51.332Z,12285.00
2023-02-27T12:34:50.929Z,12054.00
2023-02-27T12:35:50.988Z,11893.00
2023-02-27T12:36:51.066Z,11733.00
2023-02-27T12:37:50.896Z,11426.00
2023-02-27T12:38:50.873Z,10595.00
2023-02-27T12:39:50.838Z,7846.00
2023-02-27T12:40:50.920Z,10497.00
2023-02-27T12:41:50.831Z,7466.00
2023-02-27T12:42:50.856Z,6927.00
2023-02-27T12:43:50.802Z,6260.00
2023-02-27T12:44:50.799Z,6217.00
2023-02-27T12:45:50.800Z,10070.00
2023-02-27T12:46:51.712Z,7143.00
2023-02-27T12:47:51.724Z,6260.00
2023-02-27T12:48:50.807Z,6545.00
2023-02-27T12:49:51.010Z,10340.00
2023-02-27T12:50:54.740Z,10203.00
2023-02-27T12:51:50.684Z,9366.00